Pagrindinis puslapis
METAR-TAF:

METAR-TAF

Oro uostai :

Fodža, Italija

platuma: 41-32N, ilguma: 015-43E, Aukštis: 57 m

Dabartinis oras

Ataskaita buvo paskelbta 1 valandą ir 2 minutes, ne 20:55 UTC
Vėjas 3 kt iš Vakarų
Temperatūra 5°C
Drėgmė 93%
Slėgis 1020 hPa
Matomumas 10 km arba daugiau
Mažai debesys ne aukštis 3000 ft

METAR: LIBA 272055Z 28003KT 9999 FEW030 05/04 Q1020 RMK FEW VIS MIN 9999 WIND THR11 28003KT WIND THR29 /////KT BLU

Laikas: 22:57 (21:57 UTC)

Prognozė

Ataskaita buvo paskelbta 1 valandą ir 57 minutes, ne 20:00 UTC
Prognozė galioja nuo 27 metu 21 UTC su 28 metu 06 UTC
Vėjas 7 kt iš Vakarų
Matomumas: 8000 m
Mažai debesys ne aukštis 2000 ft
Tapsmas
nuo 27 metu 22 UTC su 27 metu 24 UTC
Matomumas: 5000 m
Mažai debesys ne aukštis 1000 ft
rūkana

TAF: LIBA 272000Z 2721/2806 28007KT 8000 FEW020 BECMG 2722/2724 5000 BR FEW010

Orai ataskaitas ir orų prognozės (METAR, TAF).

turimą stotys yra geltonos ir raudonos taškus žemėlapyje.

Perkelti pele per norėdami pamatyti stoties vardą.

Tada spustelėkite, norėdami matyti oro stebėjimo ir prognozės.

Norėdami pakeisti žemėlapį: spustelėkite ant žalios mygtukų su juodo kryžiaus žemyn,; žalią mygtuką su brūkšneliu, jei norite nutolinti; arba žalių rodyklių gretimoms žemėlapius.


METAR-TAF: